Time;durP1;ratioP1;P1;durP2;ratioP2;P2;SDS_P1;SDS_P2;PMS_P1;PMS_P2;Temp;Humidity;BMP_temperature;BMP_pressure;BME280_temperature;BME280_humidity;BME280_pressure;Samples;Min_cycle;Max_cycle;Signal;HPM_P1;HPM_P2
2021/11/14 00:02:24;;;;;;;;;;;7.80;1.00;;;;;;5006504;28;20059;-70
2021/11/14 00:04:50;;;;;;;;;;;7.80;1.00;;;;;;5007551;28;19964;-70
2021/11/14 00:07:17;;;;;;;;;;;7.70;1.00;;;;;;5005959;28;20003;-69
2021/11/14 00:09:43;;;;;;;;;;;7.70;1.00;;;;;;5007880;28;19913;-69
2021/11/14 00:12:09;;;;;;;;;;;7.80;1.00;;;;;;5006867;28;19921;-70
2021/11/14 00:14:34;;;;;;;;;;;7.80;1.00;;;;;;5008005;28;20348;-70
2021/11/14 00:17:00;;;;;;;;;;;7.70;1.00;;;;;;5007784;28;20416;-68
2021/11/14 00:19:25;;;;;;;;;;;7.70;1.00;;;;;;5008203;28;19917;-69
2021/11/14 00:21:51;;;;;;;;;;;7.70;1.00;;;;;;5006864;28;20240;-70
2021/11/14 00:24:17;;;;;;;;;;;7.70;1.00;;;;;;5007236;28;19956;-69
2021/11/14 00:26:42;;;;;;;;;;;7.70;1.00;;;;;;5007939;28;19925;-69
2021/11/14 00:29:08;;;;;;;;;;;7.70;1.00;;;;;;5009341;28;19924;-69
2021/11/14 00:31:34;;;;;;;;;;;7.70;1.00;;;;;;5011413;28;19921;-69
2021/11/14 00:34:00;;;;;;;;;;;7.70;1.00;;;;;;5010112;28;19944;-68
2021/11/14 00:36:28;;;;;;;;;;;7.70;1.00;;;;;;5011275;28;19922;-68
2021/11/14 00:38:54;;;;;;;;;;;7.60;1.00;;;;;;5009480;28;20322;-68
2021/11/14 00:41:21;;;;;;;;;;;7.60;1.00;;;;;;5010822;28;19925;-68
2021/11/14 00:43:47;;;;;;;;;;;7.60;1.00;;;;;;4992493;28;19921;-68
2021/11/14 00:46:14;;;;;;;;;;;7.60;1.00;;;;;;5011157;28;19917;-68
2021/11/14 00:48:42;;;;;;;;;;;7.60;1.00;;;;;;5011620;28;20343;-68
2021/11/14 00:51:11;;;;;;;;;;;7.60;1.00;;;;;;5015078;28;19920;-69
2021/11/14 00:53:36;;;;;;;;;;;7.60;1.00;;;;;;5021285;28;19925;-68
2021/11/14 00:56:02;;;;;;;;;;;7.60;1.00;;;;;;5011123;28;20378;-68
2021/11/14 00:58:29;;;;;;;;;;;7.60;1.00;;;;;;5010715;28;20012;-69
2021/11/14 01:00:55;;;;;;;;;;;7.60;1.00;;;;;;5011053;28;19917;-69
2021/11/14 01:03:20;;;;;;;;;;;7.60;1.00;;;;;;5009644;28;19914;-69
2021/11/14 01:05:46;;;;;;;;;;;7.60;1.00;;;;;;5010503;28;20016;-69
2021/11/14 01:08:14;;;;;;;;;;;7.60;1.00;;;;;;5009316;28;19913;-70
2021/11/14 01:10:41;;;;;;;;;;;7.70;1.00;;;;;;5010236;28;19928;-70
2021/11/14 01:13:07;;;;;;;;;;;7.70;1.00;;;;;;5010482;28;20381;-69
2021/11/14 01:15:32;;;;;;;;;;;7.70;1.00;;;;;;5010513;28;19921;-69
2021/11/14 01:17:58;;;;;;;;;;;7.70;1.00;;;;;;5011221;28;19917;-69
2021/11/14 01:20:26;;;;;;;;;;;7.70;1.00;;;;;;5010649;28;20134;-70
2021/11/14 01:22:52;;;;;;;;;;;7.70;1.00;;;;;;5008129;28;20473;-69
2021/11/14 01:25:18;;;;;;;;;;;7.70;1.00;;;;;;5010597;28;19929;-68
2021/11/14 01:27:43;;;;;;;;;;;7.70;1.00;;;;;;5009675;28;19917;-68
2021/11/14 01:30:11;;;;;;;;;;;7.70;1.00;;;;;;5010574;28;19918;-68
2021/11/14 01:32:37;;;;;;;;;;;7.80;1.00;;;;;;5009680;28;19917;-69
2021/11/14 01:35:03;;;;;;;;;;;7.80;1.00;;;;;;5010476;28;19924;-69
2021/11/14 01:37:29;;;;;;;;;;;7.80;1.00;;;;;;5005106;28;19996;-69
2021/11/14 01:39:54;;;;;;;;;;;7.70;1.00;;;;;;5009494;28;20506;-70
2021/11/14 01:42:20;;;;;;;;;;;7.70;1.00;;;;;;5008885;28;19913;-69
2021/11/14 01:44:45;;;;;;;;;;;7.70;1.00;;;;;;5010098;28;19969;-69
2021/11/14 01:47:11;;;;;;;;;;;7.70;1.00;;;;;;5009283;28;19917;-69
2021/11/14 01:49:36;;;;;;;;;;;7.70;1.00;;;;;;5016934;28;19957;-69
2021/11/14 01:52:03;;;;;;;;;;;7.70;1.00;;;;;;5009666;28;19991;-69
2021/11/14 01:54:29;;;;;;;;;;;7.70;1.00;;;;;;5011122;28;19917;-69
2021/11/14 01:56:55;;;;;;;;;;;7.70;1.00;;;;;;5009239;28;19918;-69
2021/11/14 01:59:20;;;;;;;;;;;7.70;1.00;;;;;;5009886;28;20008;-69
2021/11/14 02:01:46;;;;;;;;;;;7.80;1.00;;;;;;5009266;28;19917;-69
2021/11/14 02:04:12;;;;;;;;;;;7.80;1.00;;;;;;5009700;28;19913;-69
2021/11/14 02:06:40;;;;;;;;;;;7.70;1.00;;;;;;5009055;28;19925;-70
2021/11/14 02:09:07;;;;;;;;;;;7.70;1.00;;;;;;5008335;28;19913;-70
2021/11/14 02:11:33;;;;;;;;;;;7.70;1.00;;;;;;5009666;28;19965;-70
2021/11/14 02:13:58;;;;;;;;;;;7.70;1.00;;;;;;5008989;28;19949;-69
2021/11/14 02:16:25;;;;;;;;;;;7.60;1.00;;;;;;5009037;28;19918;-69
2021/11/14 02:18:51;;;;;;;;;;;7.60;1.00;;;;;;5009492;28;20255;-69
2021/11/14 02:21:17;;;;;;;;;;;7.70;1.00;;;;;;5009594;28;19913;-69
2021/11/14 02:23:43;;;;;;;;;;;7.60;1.00;;;;;;5006963;28;20314;-69
2021/11/14 02:26:09;;;;;;;;;;;7.70;1.00;;;;;;5009468;28;20267;-69
2021/11/14 02:28:34;;;;;;;;;;;7.60;1.00;;;;;;5009259;28;19913;-70
2021/11/14 02:31:00;;;;;;;;;;;7.60;1.00;;;;;;5009338;28;19931;-69
2021/11/14 02:33:27;;;;;;;;;;;7.60;1.00;;;;;;5008109;28;19964;-70
2021/11/14 02:35:55;;;;;;;;;;;7.60;1.00;;;;;;5000739;28;19925;-70
2021/11/14 02:38:21;;;;;;;;;;;7.60;1.00;;;;;;5007281;28;19972;-69
2021/11/14 02:40:47;;;;;;;;;;;7.50;1.00;;;;;;5009036;28;19921;-69
2021/11/14 02:43:13;;;;;;;;;;;7.50;1.00;;;;;;5008095;28;20373;-69
2021/11/14 02:45:38;;;;;;;;;;;7.50;1.00;;;;;;5007196;28;19972;-69
2021/11/14 02:48:05;;;;;;;;;;;7.50;1.00;;;;;;5004209;28;20249;-69
2021/11/14 02:50:30;;;;;;;;;;;7.40;1.00;;;;;;5014513;28;20047;-69
2021/11/14 02:52:56;;;;;;;;;;;7.40;1.00;;;;;;5005406;28;19965;-69
2021/11/14 02:55:23;;;;;;;;;;;7.40;1.00;;;;;;5008598;28;20019;-69
2021/11/14 02:57:49;;;;;;;;;;;7.40;1.00;;;;;;5008035;28;19996;-69
2021/11/14 03:00:16;;;;;;;;;;;7.40;1.00;;;;;;5008636;28;19914;-69
2021/11/14 03:02:42;;;;;;;;;;;7.40;1.00;;;;;;5007641;28;19913;-69
2021/11/14 03:05:08;;;;;;;;;;;7.40;1.00;;;;;;5008923;28;19983;-69
2021/11/14 03:07:34;;;;;;;;;;;7.40;1.00;;;;;;5006925;28;20323;-69
2021/11/14 03:10:00;;;;;;;;;;;7.30;1.00;;;;;;5008564;28;19967;-69
2021/11/14 03:12:26;;;;;;;;;;;7.40;1.00;;;;;;5008184;28;20060;-69
2021/11/14 03:14:51;;;;;;;;;;;7.40;1.00;;;;;;5008911;28;19914;-69
2021/11/14 03:17:17;;;;;;;;;;;7.40;1.00;;;;;;5008779;28;20024;-69
2021/11/14 03:19:42;;;;;;;;;;;7.40;1.00;;;;;;5008606;28;19963;-70
2021/11/14 03:22:10;;;;;;;;;;;7.40;1.00;;;;;;4988164;28;19918;-69
2021/11/14 03:24:35;;;;;;;;;;;7.50;1.00;;;;;;5008791;28;19914;-69
2021/11/14 03:27:01;;;;;;;;;;;7.50;1.00;;;;;;5008134;28;19920;-69
2021/11/14 03:29:26;;;;;;;;;;;7.50;1.00;;;;;;5010375;28;19921;-69
2021/11/14 03:31:52;;;;;;;;;;;7.50;1.00;;;;;;5008642;28;20004;-69
2021/11/14 03:34:18;;;;;;;;;;;7.50;1.00;;;;;;5008054;28;19913;-69
2021/11/14 03:36:43;;;;;;;;;;;7.50;1.00;;;;;;5008116;28;19921;-69
2021/11/14 03:39:09;;;;;;;;;;;7.50;1.00;;;;;;5007712;28;19958;-69
2021/11/14 03:41:36;;;;;;;;;;;7.50;1.00;;;;;;5008683;28;19913;-70
2021/11/14 03:44:03;;;;;;;;;;;7.40;1.00;;;;;;5007648;28;19940;-70
2021/11/14 03:46:28;;;;;;;;;;;7.40;1.00;;;;;;5007841;28;19980;-69
2021/11/14 03:48:55;;;;;;;;;;;7.40;1.00;;;;;;5009306;28;20015;-69
2021/11/14 03:51:21;;;;;;;;;;;7.40;1.00;;;;;;5013311;28;19922;-69
2021/11/14 03:53:46;;;;;;;;;;;7.40;1.00;;;;;;5006331;28;19925;-70
2021/11/14 03:56:13;;;;;;;;;;;7.40;1.00;;;;;;5007613;28;20343;-69
2021/11/14 03:58:38;;;;;;;;;;;7.40;1.00;;;;;;5007824;28;19913;-69
2021/11/14 04:01:07;;;;;;;;;;;7.40;1.00;;;;;;5008436;28;19936;-70
2021/11/14 04:03:35;;;;;;;;;;;7.40;1.00;;;;;;5008705;28;19960;-70
2021/11/14 04:06:01;;;;;;;;;;;7.40;1.00;;;;;;5012236;28;19913;-69
2021/11/14 04:08:26;;;;;;;;;;;7.40;1.00;;;;;;5009999;28;19914;-69
2021/11/14 04:10:54;;;;;;;;;;;7.50;1.00;;;;;;5012194;28;19914;-69
2021/11/14 04:13:21;;;;;;;;;;;7.50;1.00;;;;;;5011301;28;19914;-69
2021/11/14 04:15:47;;;;;;;;;;;7.50;1.00;;;;;;5012449;28;19944;-69
2021/11/14 04:18:12;;;;;;;;;;;7.50;1.00;;;;;;5011779;28;19914;-70
2021/11/14 04:20:40;;;;;;;;;;;7.50;1.00;;;;;;5011434;28;19968;-69
2021/11/14 04:23:07;;;;;;;;;;;7.40;1.00;;;;;;5009439;28;19913;-69
2021/11/14 04:25:32;;;;;;;;;;;7.40;1.00;;;;;;5011584;28;20008;-69
2021/11/14 04:27:58;;;;;;;;;;;7.40;1.00;;;;;;5011532;28;20019;-69
2021/11/14 04:30:24;;;;;;;;;;;7.40;1.00;;;;;;5011665;28;19917;-69
2021/11/14 04:32:50;;;;;;;;;;;7.40;1.00;;;;;;5010702;28;20527;-69
2021/11/14 04:35:16;;;;;;;;;;;7.40;1.00;;;;;;5011386;28;20016;-69
2021/11/14 04:37:42;;;;;;;;;;;7.50;1.00;;;;;;5009878;28;19924;-69
2021/11/14 04:40:09;;;;;;;;;;;7.50;1.00;;;;;;5012073;28;19921;-69
2021/11/14 04:42:35;;;;;;;;;;;7.50;1.00;;;;;;5010484;28;19928;-70
2021/11/14 04:45:01;;;;;;;;;;;7.50;1.00;;;;;;5011380;28;19929;-70
2021/11/14 04:47:27;;;;;;;;;;;7.50;1.00;;;;;;5009856;28;19967;-69
2021/11/14 04:49:52;;;;;;;;;;;7.50;1.00;;;;;;5013994;28;19918;-69
2021/11/14 04:52:18;;;;;;;;;;;7.50;1.00;;;;;;5018363;28;19924;-70
2021/11/14 04:54:43;;;;;;;;;;;7.50;1.00;;;;;;5015493;28;19913;-69
2021/11/14 04:57:09;;;;;;;;;;;7.60;1.00;;;;;;5010638;28;19944;-69
2021/11/14 04:59:34;;;;;;;;;;;7.60;1.00;;;;;;5011503;28;19913;-69
2021/11/14 05:02:00;;;;;;;;;;;7.60;1.00;;;;;;5010476;28;20442;-68
2021/11/14 05:04:26;;;;;;;;;;;7.60;1.00;;;;;;5011256;28;19921;-68
2021/11/14 05:06:51;;;;;;;;;;;7.60;1.00;;;;;;5010002;28;20004;-68
2021/11/14 05:09:17;;;;;;;;;;;7.60;1.00;;;;;;5010137;28;20172;-68
2021/11/14 05:11:42;;;;;;;;;;;7.60;1.00;;;;;;5010656;28;19948;-68
2021/11/14 05:14:08;;;;;;;;;;;7.60;1.00;;;;;;5009536;28;20412;-68
2021/11/14 05:16:34;;;;;;;;;;;7.70;1.00;;;;;;5010270;28;19925;-68
2021/11/14 05:18:59;;;;;;;;;;;7.70;1.00;;;;;;5010412;28;19983;-68
2021/11/14 05:21:25;;;;;;;;;;;7.70;1.00;;;;;;5010357;28;19920;-69
2021/11/14 05:23:50;;;;;;;;;;;7.70;1.00;;;;;;5008773;28;19917;-68
2021/11/14 05:26:16;;;;;;;;;;;7.70;1.00;;;;;;5010845;28;20354;-69
2021/11/14 05:28:42;;;;;;;;;;;7.70;1.00;;;;;;5010588;28;19959;-68
2021/11/14 05:31:07;;;;;;;;;;;7.70;1.00;;;;;;5009979;28;20421;-68
2021/11/14 05:33:32;;;;;;;;;;;7.70;1.00;;;;;;5009304;28;19914;-68
2021/11/14 05:35:58;;;;;;;;;;;7.70;1.00;;;;;;5010917;28;19928;-68
2021/11/14 05:38:24;;;;;;;;;;;7.70;1.00;;;;;;5008783;28;20442;-68
2021/11/14 05:40:49;;;;;;;;;;;7.60;1.00;;;;;;5010516;28;20375;-68
2021/11/14 05:43:15;;;;;;;;;;;7.60;1.00;;;;;;5008888;28;19983;-68
2021/11/14 05:45:41;;;;;;;;;;;7.60;1.00;;;;;;5010640;28;20349;-68
2021/11/14 05:48:06;;;;;;;;;;;7.60;1.00;;;;;;5010381;28;20409;-68
2021/11/14 05:50:32;;;;;;;;;;;7.60;1.00;;;;;;5015045;28;19914;-68
2021/11/14 05:52:58;;;;;;;;;;;7.70;1.00;;;;;;5007947;28;20028;-68
2021/11/14 05:55:24;;;;;;;;;;;7.60;1.00;;;;;;5010218;28;19925;-68
2021/11/14 05:57:58;;;;;;;;;;;7.60;1.00;;;;;;5009889;28;19914;-68
2021/11/14 06:00:33;;;;;;;;;;;7.60;1.00;;;;;;5010007;28;20278;-69
2021/11/14 06:05:45;;;;;;;;;;;7.70;1.00;;;;;;5006092;28;20016;-70
2021/11/14 06:08:10;;;;;;;;;;;7.70;1.00;;;;;;5008322;28;20012;-70
2021/11/14 06:10:36;;;;;;;;;;;7.70;1.00;;;;;;5009913;28;20347;-70
2021/11/14 06:13:02;;;;;;;;;;;7.70;1.00;;;;;;5009471;28;20526;-70
2021/11/14 06:15:27;;;;;;;;;;;7.70;1.00;;;;;;5009627;28;19926;-70
2021/11/14 06:17:53;;;;;;;;;;;7.70;1.00;;;;;;5009927;28;20000;-70
2021/11/14 06:20:19;;;;;;;;;;;7.80;1.00;;;;;;5009979;28;19940;-69
2021/11/14 06:22:44;;;;;;;;;;;7.80;1.00;;;;;;5007370;28;19979;-69
2021/11/14 06:25:10;;;;;;;;;;;7.80;1.00;;;;;;5009418;28;20353;-71
2021/11/14 06:27:36;;;;;;;;;;;7.70;1.00;;;;;;5012917;28;20000;-68
2021/11/14 06:30:06;;;;;;;;;;;7.70;1.00;;;;;;5014886;28;20287;-69
2021/11/14 06:32:32;;;;;;;;;;;7.80;1.00;;;;;;5008101;28;19913;-70
2021/11/14 06:34:59;;;;;;;;;;;7.80;1.00;;;;;;5009173;28;19914;-70
2021/11/14 06:37:25;;;;;;;;;;;7.80;1.00;;;;;;5006564;28;19917;-69
2021/11/14 06:39:50;;;;;;;;;;;7.80;1.00;;;;;;5008851;28;19909;-69
2021/11/14 06:42:16;;;;;;;;;;;7.80;1.00;;;;;;5007815;28;20240;-69
2021/11/14 06:44:41;;;;;;;;;;;7.80;1.00;;;;;;5009084;28;19961;-69
2021/11/14 06:47:07;;;;;;;;;;;7.80;1.00;;;;;;5008467;28;19909;-69
2021/11/14 06:49:33;;;;;;;;;;;7.80;1.00;;;;;;5015428;28;20006;-70
2021/11/14 06:51:58;;;;;;;;;;;7.80;1.00;;;;;;5006547;28;20286;-70
2021/11/14 06:54:24;;;;;;;;;;;7.80;1.00;;;;;;5009143;28;19909;-72
2021/11/14 06:56:49;;;;;;;;;;;7.80;1.00;;;;;;5008975;28;19928;-70
2021/11/14 06:59:15;;;;;;;;;;;7.90;1.00;;;;;;5008583;28;20012;-70
2021/11/14 07:01:40;;;;;;;;;;;7.90;1.00;;;;;;4991132;28;19968;-70
2021/11/14 07:04:06;;;;;;;;;;;7.90;1.00;;;;;;5007951;28;20298;-71
2021/11/14 07:06:31;;;;;;;;;;;7.90;1.00;;;;;;5008232;28;19988;-70
2021/11/14 07:08:57;;;;;;;;;;;7.90;1.00;;;;;;5007124;28;19910;-69
2021/11/14 07:11:22;;;;;;;;;;;8.00;1.00;;;;;;5008745;28;19925;-70
2021/11/14 07:13:48;;;;;;;;;;;8.00;1.00;;;;;;5008286;28;19983;-70
2021/11/14 07:16:14;;;;;;;;;;;8.00;1.00;;;;;;4991452;28;20216;-70
2021/11/14 07:18:39;;;;;;;;;;;8.00;1.00;;;;;;5008792;28;20551;-70
2021/11/14 07:21:05;;;;;;;;;;;8.10;1.00;;;;;;5009162;28;20201;-70
2021/11/14 07:23:31;;;;;;;;;;;8.10;1.00;;;;;;5006961;28;19913;-69
2021/11/14 07:25:57;;;;;;;;;;;8.10;1.00;;;;;;5009080;28;19936;-70
2021/11/14 07:28:22;;;;;;;;;;;8.10;1.00;;;;;;5008863;28;19925;-69
2021/11/14 07:30:48;;;;;;;;;;;8.00;1.00;;;;;;5017216;22;19922;-69
2021/11/14 07:33:13;;;;;;;;;;;7.90;1.00;;;;;;5008620;28;19971;-70
2021/11/14 07:35:39;;;;;;;;;;;7.80;1.00;;;;;;5008825;28;19921;-70
2021/11/14 07:38:04;;;;;;;;;;;7.70;1.00;;;;;;5009113;28;19949;-70
2021/11/14 07:40:33;;;;;;;;;;;7.70;1.00;;;;;;5013399;28;20387;-69
2021/11/14 07:42:59;;;;;;;;;;;7.70;1.00;;;;;;5012533;28;19913;-70
2021/11/14 07:45:25;;;;;;;;;;;7.70;1.00;;;;;;5013600;28;19956;-69
2021/11/14 07:47:52;;;;;;;;;;;7.70;1.00;;;;;;5013042;28;19909;-69
2021/11/14 07:50:18;;;;;;;;;;;7.80;1.00;;;;;;5013150;28;20670;-70
2021/11/14 07:52:44;;;;;;;;;;;7.70;1.00;;;;;;5001976;28;19960;-70
2021/11/14 07:55:10;;;;;;;;;;;7.80;1.00;;;;;;5012792;28;19910;-70
2021/11/14 07:57:38;;;;;;;;;;;7.80;1.00;;;;;;5012678;28;19913;-69
2021/11/14 08:00:04;;;;;;;;;;;7.80;1.00;;;;;;5012662;28;19914;-71
2021/11/14 08:02:30;;;;;;;;;;;7.80;1.00;;;;;;5011592;28;20000;-70
2021/11/14 08:04:55;;;;;;;;;;;7.90;1.00;;;;;;5012577;28;19913;-70
2021/11/14 08:07:21;;;;;;;;;;;7.90;1.00;;;;;;5010353;28;19971;-69
2021/11/14 08:09:46;;;;;;;;;;;7.90;1.00;;;;;;5012430;28;19926;-70
2021/11/14 08:12:15;;;;;;;;;;;8.00;1.00;;;;;;5010810;28;19914;-69
2021/11/14 08:14:40;;;;;;;;;;;8.10;1.00;;;;;;5000923;28;19925;-69
2021/11/14 08:17:06;;;;;;;;;;;8.20;1.00;;;;;;5007877;28;20099;-69
2021/11/14 08:19:31;;;;;;;;;;;8.30;1.00;;;;;;5003093;28;19972;-69
2021/11/14 08:21:57;;;;;;;;;;;8.40;1.00;;;;;;5006600;28;20014;-69
2021/11/14 08:24:22;;;;;;;;;;;8.60;1.00;;;;;;5008525;28;19999;-70
2021/11/14 08:26:48;;;;;;;;;;;8.70;1.00;;;;;;5006622;28;19921;-69
2021/11/14 08:29:13;;;;;;;;;;;8.90;1.00;;;;;;5005610;28;19949;-69
2021/11/14 08:31:39;;;;;;;;;;;8.90;1.00;;;;;;5005235;28;20030;-69
2021/11/14 08:34:06;;;;;;;;;;;9.00;1.00;;;;;;5000702;28;20001;-70
2021/11/14 08:36:32;;;;;;;;;;;9.00;1.00;;;;;;5001979;28;19928;-70
2021/11/14 08:38:58;;;;;;;;;;;9.10;1.00;;;;;;5004340;28;19961;-70
2021/11/14 08:41:27;;;;;;;;;;;8.90;1.00;;;;;;5009116;28;19953;-70
2021/11/14 08:43:55;;;;;;;;;;;8.90;1.00;;;;;;5007178;28;19920;-70
2021/11/14 08:46:20;;;;;;;;;;;8.90;1.00;;;;;;5007414;28;19922;-70
2021/11/14 08:48:46;;;;;;;;;;;8.80;1.00;;;;;;5005462;28;20005;-70
2021/11/14 08:51:12;;;;;;;;;;;8.70;1.00;;;;;;5005566;28;19913;-69
2021/11/14 08:53:37;;;;;;;;;;;8.70;1.00;;;;;;5004087;28;19960;-69
2021/11/14 08:56:03;;;;;;;;;;;8.60;1.00;;;;;;5004936;28;19925;-69
2021/11/14 08:58:31;;;;;;;;;;;8.50;1.00;;;;;;5008730;28;19925;-69
2021/11/14 09:00:56;;;;;;;;;;;8.50;1.00;;;;;;5006761;28;19921;-70
2021/11/14 09:03:22;;;;;;;;;;;8.50;1.00;;;;;;5007787;28;19918;-70
2021/11/14 09:05:48;;;;;;;;;;;8.40;1.00;;;;;;5007341;28;19917;-69
2021/11/14 09:08:22;;;;;;;;;;;8.50;1.00;;;;;;5003162;28;19914;-69
2021/11/14 09:10:48;;;;;;;;;;;8.40;1.00;;;;;;5007217;28;19917;-68
2021/11/14 09:13:15;;;;;;;;;;;8.40;1.00;;;;;;5003028;28;19960;-69
2021/11/14 09:15:41;;;;;;;;;;;8.30;1.00;;;;;;5005897;28;20138;-69
2021/11/14 09:18:07;;;;;;;;;;;8.30;1.00;;;;;;5007585;28;19921;-71
2021/11/14 09:20:33;;;;;;;;;;;8.40;1.00;;;;;;5003785;28;19925;-69
2021/11/14 09:22:58;;;;;;;;;;;8.40;1.00;;;;;;5004257;28;19964;-69
2021/11/14 09:25:24;;;;;;;;;;;8.40;1.00;;;;;;5004355;28;20250;-69
2021/11/14 09:27:50;;;;;;;;;;;8.40;1.00;;;;;;5002012;28;19922;-69
2021/11/14 09:30:17;;;;;;;;;;;8.50;1.00;;;;;;5005656;28;20011;-68
2021/11/14 09:32:42;;;;;;;;;;;8.50;1.00;;;;;;5007527;28;19932;-70
2021/11/14 09:35:08;;;;;;;;;;;8.50;1.00;;;;;;5009491;28;19917;-70
2021/11/14 09:37:34;;;;;;;;;;;8.50;1.00;;;;;;5005059;28;20047;-69
2021/11/14 09:40:03;;;;;;;;;;;8.50;1.00;;;;;;5000785;28;19949;-70
2021/11/14 09:42:30;;;;;;;;;;;8.50;1.00;;;;;;4997884;28;19940;-67
2021/11/14 09:44:55;;;;;;;;;;;8.50;1.00;;;;;;5001000;28;19917;-69
2021/11/14 09:47:21;;;;;;;;;;;8.60;1.00;;;;;;4999460;28;19987;-70
2021/11/14 09:49:47;;;;;;;;;;;8.60;1.00;;;;;;4999172;28;20008;-71
2021/11/14 09:52:12;;;;;;;;;;;8.50;1.00;;;;;;4998336;28;19914;-68
2021/11/14 09:54:40;;;;;;;;;;;8.50;1.00;;;;;;4999002;28;20000;-70
2021/11/14 09:57:06;;;;;;;;;;;8.50;1.00;;;;;;4999965;28;19977;-70
2021/11/14 09:59:31;;;;;;;;;;;8.50;1.00;;;;;;5006299;28;20339;-69
2021/11/14 10:01:58;;;;;;;;;;;8.60;1.00;;;;;;5003454;28;19972;-71
2021/11/14 10:04:24;;;;;;;;;;;8.60;1.00;;;;;;5004252;28;19943;-70
2021/11/14 10:07:03;;;;;;;;;;;8.60;1.00;;;;;;5001900;28;20363;-70
2021/11/14 10:09:29;;;;;;;;;;;8.50;1.00;;;;;;5003700;28;19993;-72
2021/11/14 10:11:55;;;;;;;;;;;8.50;1.00;;;;;;5005371;28;19914;-69
2021/11/14 10:14:22;;;;;;;;;;;8.40;1.00;;;;;;5008160;28;19913;-70
2021/11/14 10:16:48;;;;;;;;;;;8.50;1.00;;;;;;5000537;28;20025;-71
2021/11/14 10:19:13;;;;;;;;;;;8.50;1.00;;;;;;5002586;28;19961;-70
2021/11/14 10:21:39;;;;;;;;;;;8.60;1.00;;;;;;5000523;28;19925;-68
2021/11/14 10:24:06;;;;;;;;;;;8.60;1.00;;;;;;5003067;28;19913;-69
2021/11/14 10:26:32;;;;;;;;;;;8.60;1.00;;;;;;5002838;28;19914;-70
2021/11/14 10:29:02;;;;;;;;;;;8.60;1.00;;;;;;5003387;28;19917;-70
2021/11/14 10:31:29;;;;;;;;;;;8.60;1.00;;;;;;5004005;28;20016;-70
2021/11/14 10:33:54;;;;;;;;;;;8.60;1.00;;;;;;5003286;28;19945;-71
2021/11/14 10:36:21;;;;;;;;;;;8.60;1.00;;;;;;4999643;28;19997;-70
2021/11/14 10:38:47;;;;;;;;;;;8.50;1.00;;;;;;5001451;28;19922;-71
2021/11/14 10:41:13;;;;;;;;;;;8.60;1.00;;;;;;4998548;28;20047;-69
2021/11/14 10:43:40;;;;;;;;;;;8.50;1.00;;;;;;4999782;28;19913;-69
2021/11/14 10:46:26;;;;;;;;;;;8.50;1.00;;;;;;4996766;28;19937;-70
2021/11/14 10:49:00;;;;;;;;;;;8.60;1.00;;;;;;4990267;28;20391;-70
2021/11/14 10:51:27;;;;;;;;;;;8.70;1.00;;;;;;5008186;28;19971;-69
2021/11/14 10:53:53;;;;;;;;;;;8.70;1.00;;;;;;4998030;28;19917;-70
2021/11/14 10:56:18;;;;;;;;;;;8.80;1.00;;;;;;5009159;28;19932;-70
2021/11/14 10:58:45;;;;;;;;;;;8.80;1.00;;;;;;5007740;28;20283;-69
2021/11/14 11:01:12;;;;;;;;;;;8.80;1.00;;;;;;5008882;28;20239;-69
2021/11/14 11:03:39;;;;;;;;;;;8.70;1.00;;;;;;5007858;28;19973;-69
2021/11/14 11:06:06;;;;;;;;;;;8.80;1.00;;;;;;5009317;28;19924;-70
2021/11/14 11:08:32;;;;;;;;;;;8.70;1.00;;;;;;5006953;28;19976;-69
2021/11/14 11:10:59;;;;;;;;;;;8.60;1.00;;;;;;5008987;28;20040;-69
2021/11/14 11:13:35;;;;;;;;;;;8.60;1.00;;;;;;5007161;28;20314;-69
2021/11/14 11:16:04;;;;;;;;;;;8.70;1.00;;;;;;5008537;28;19929;-69
2021/11/14 11:18:30;;;;;;;;;;;8.70;1.00;;;;;;5008328;28;20119;-71
2021/11/14 11:20:57;;;;;;;;;;;8.60;1.00;;;;;;5008958;28;20318;-69
2021/11/14 11:23:23;;;;;;;;;;;8.60;1.00;;;;;;5006859;28;19918;-69
2021/11/14 11:25:50;;;;;;;;;;;8.60;1.00;;;;;;5008499;28;19965;-68
2021/11/14 11:28:16;;;;;;;;;;;8.60;1.00;;;;;;5008749;28;19913;-70
2021/11/14 11:30:43;;;;;;;;;;;8.60;1.00;;;;;;5008246;28;19920;-69
2021/11/14 11:33:09;;;;;;;;;;;8.70;1.00;;;;;;5001899;28;20012;-68
2021/11/14 11:35:35;;;;;;;;;;;8.70;1.00;;;;;;5007672;28;20017;-69
2021/11/14 11:38:01;;;;;;;;;;;8.70;1.00;;;;;;5006900;28;20296;-70
2021/11/14 11:40:26;;;;;;;;;;;8.70;1.00;;;;;;5008735;28;20325;-69
2021/11/14 11:42:53;;;;;;;;;;;8.70;1.00;;;;;;5006168;28;19914;-69
2021/11/14 11:45:25;;;;;;;;;;;8.70;1.00;;;;;;5008898;28;20024;-69
2021/11/14 11:47:52;;;;;;;;;;;8.70;1.00;;;;;;5008135;28;19939;-69
2021/11/14 11:50:22;;;;;;;;;;;8.70;1.00;;;;;;5008104;28;20005;-69
2021/11/14 11:52:47;;;;;;;;;;;8.70;1.00;;;;;;5006132;28;19924;-71
2021/11/14 11:55:27;;;;;;;;;;;8.70;1.00;;;;;;5008921;28;19922;-71
2021/11/14 11:57:54;;;;;;;;;;;8.70;1.00;;;;;;5008674;28;19925;-71
2021/11/14 12:00:20;;;;;;;;;;;8.70;1.00;;;;;;5009018;28;20064;-72
2021/11/14 12:02:46;;;;;;;;;;;8.70;1.00;;;;;;5007309;28;19913;-71
2021/11/14 12:05:13;;;;;;;;;;;8.80;1.00;;;;;;5009281;28;19924;-73
2021/11/14 12:07:46;;;;;;;;;;;8.90;1.00;;;;;;5007128;28;19913;-73
2021/11/14 12:10:14;;;;;;;;;;;8.90;1.00;;;;;;5009289;28;19921;-72
2021/11/14 12:12:56;;;;;;;;;;;9.00;1.00;;;;;;5007935;28;19919;-70
2021/11/14 12:15:22;;;;;;;;;;;9.10;1.00;;;;;;5009138;28;20373;-70
2021/11/14 12:18:01;;;;;;;;;;;9.20;1.00;;;;;;5008955;28;19928;-73
2021/11/14 12:20:29;;;;;;;;;;;9.30;1.00;;;;;;5008588;28;19917;-71
2021/11/14 12:22:56;;;;;;;;;;;9.40;1.00;;;;;;5006190;28;19976;-70
2021/11/14 12:25:31;;;;;;;;;;;9.50;1.00;;;;;;5011628;28;19913;-70
2021/11/14 12:27:57;;;;;;;;;;;9.50;1.00;;;;;;5003658;28;20397;-71
2021/11/14 12:30:23;;;;;;;;;;;9.60;1.00;;;;;;5011789;28;19924;-70
2021/11/14 12:32:50;;;;;;;;;;;9.50;1.00;;;;;;5011036;28;19917;-72
2021/11/14 12:35:23;;;;;;;;;;;9.40;1.00;;;;;;5012157;28;20343;-71
2021/11/14 12:38:04;;;;;;;;;;;9.30;1.00;;;;;;5009857;28;20341;-70
2021/11/14 12:40:36;;;;;;;;;;;9.30;1.00;;;;;;5011833;28;20441;-70
2021/11/14 12:43:13;;;;;;;;;;;9.10;1.00;;;;;;5010168;28;19918;-70
2021/11/14 12:45:52;;;;;;;;;;;9.00;1.00;;;;;;5011551;28;20581;-70
2021/11/14 12:48:20;;;;;;;;;;;9.00;1.00;;;;;;5010078;28;19914;-71
2021/11/14 12:50:45;;;;;;;;;;;8.90;1.00;;;;;;5010754;28;19920;-70
2021/11/14 12:53:14;;;;;;;;;;;9.00;1.00;;;;;;5008513;28;20278;-69
2021/11/14 12:55:41;;;;;;;;;;;9.00;1.00;;;;;;5003554;28;20290;-70
2021/11/14 12:58:09;;;;;;;;;;;9.00;1.00;;;;;;5011104;28;19980;-70
2021/11/14 13:00:36;;;;;;;;;;;9.00;1.00;;;;;;5010892;28;20091;-69
2021/11/14 13:03:03;;;;;;;;;;;8.90;1.00;;;;;;5009573;28;20017;-70
2021/11/14 13:05:40;;;;;;;;;;;8.90;1.00;;;;;;5008161;28;19918;-70
2021/11/14 13:08:05;;;;;;;;;;;8.90;1.00;;;;;;5009376;28;19917;-71
2021/11/14 13:10:31;;;;;;;;;;;8.90;1.00;;;;;;5011159;28;20545;-71
2021/11/14 13:12:58;;;;;;;;;;;8.90;1.00;;;;;;5007957;28;19960;-69
2021/11/14 13:15:23;;;;;;;;;;;8.80;1.00;;;;;;5005846;28;19921;-69
2021/11/14 13:17:51;;;;;;;;;;;8.80;1.00;;;;;;5006935;28;19913;-70
2021/11/14 13:20:18;;;;;;;;;;;8.80;1.00;;;;;;4992926;28;19956;-70
2021/11/14 13:22:46;;;;;;;;;;;8.80;1.00;;;;;;5007638;28;20314;-70
2021/11/14 13:25:13;;;;;;;;;;;8.90;1.00;;;;;;5009690;28;19953;-69
2021/11/14 13:27:38;;;;;;;;;;;8.90;1.00;;;;;;5009644;28;19946;-69
2021/11/14 13:30:04;;;;;;;;;;;8.90;1.00;;;;;;5010229;28;19970;-70
2021/11/14 13:32:31;;;;;;;;;;;9.00;1.00;;;;;;5008562;28;20071;-69
2021/11/14 13:34:58;;;;;;;;;;;9.00;1.00;;;;;;5003313;28;20408;-69
2021/11/14 13:37:30;;;;;;;;;;;9.00;1.00;;;;;;5005713;28;20379;-68
2021/11/14 13:39:59;;;;;;;;;;;9.00;1.00;;;;;;5010599;28;19913;-68
2021/11/14 13:42:29;;;;;;;;;;;9.00;1.00;;;;;;5009312;28;20231;-69
2021/11/14 13:44:56;;;;;;;;;;;9.00;1.00;;;;;;5006929;28;19918;-69
2021/11/14 13:47:35;;;;;;;;;;;8.90;1.00;;;;;;5009829;28;19913;-69
2021/11/14 13:50:02;;;;;;;;;;;8.80;1.00;;;;;;5009320;28;19986;-69
2021/11/14 13:52:28;;;;;;;;;;;8.80;1.00;;;;;;5007213;28;20396;-69
2021/11/14 13:54:56;;;;;;;;;;;8.80;1.00;;;;;;4999196;28;19914;-69
2021/11/14 13:57:22;;;;;;;;;;;8.80;1.00;;;;;;5008954;28;19917;-69
2021/11/14 13:59:48;;;;;;;;;;;8.80;1.00;;;;;;5009733;28;19935;-69
2021/11/14 14:02:14;;;;;;;;;;;8.80;1.00;;;;;;5008553;28;19917;-69
2021/11/14 14:04:50;;;;;;;;;;;8.90;1.00;;;;;;5009816;28;19925;-69
2021/11/14 14:07:16;;;;;;;;;;;8.80;1.00;;;;;;5008170;28;19944;-69
2021/11/14 14:09:51;;;;;;;;;;;8.90;1.00;;;;;;5009917;28;19996;-68
2021/11/14 14:12:19;;;;;;;;;;;8.80;1.00;;;;;;5008468;28;19917;-69
2021/11/14 14:14:46;;;;;;;;;;;8.80;1.00;;;;;;5009747;28;19977;-68
2021/11/14 14:17:12;;;;;;;;;;;8.70;1.00;;;;;;5008739;28;19926;-69
2021/11/14 14:19:37;;;;;;;;;;;8.70;1.00;;;;;;5009321;28;19913;-69
2021/11/14 14:22:03;;;;;;;;;;;8.70;1.00;;;;;;5007576;28;19917;-70
2021/11/14 14:24:29;;;;;;;;;;;8.70;1.00;;;;;;5009153;28;20236;-69
2021/11/14 14:26:55;;;;;;;;;;;8.70;1.00;;;;;;5009255;28;19943;-69
2021/11/14 14:29:22;;;;;;;;;;;8.60;1.00;;;;;;5009657;28;20023;-69
2021/11/14 14:31:48;;;;;;;;;;;8.70;1.00;;;;;;5008839;28;19990;-69
2021/11/14 14:34:18;;;;;;;;;;;8.60;1.00;;;;;;5008778;28;20012;-69
2021/11/14 14:36:44;;;;;;;;;;;8.60;1.00;;;;;;4990243;28;19944;-70
2021/11/14 14:39:11;;;;;;;;;;;8.60;1.00;;;;;;5007828;28;19918;-70
2021/11/14 14:41:37;;;;;;;;;;;8.60;1.00;;;;;;5008648;28;20700;-68
2021/11/14 14:44:05;;;;;;;;;;;8.50;1.00;;;;;;5008183;28;19914;-68